LFSB 301030Z AUTO VRB04KT CAVOK 20/06 Q1019 NOSIG

ElémentsDécodage
LFSB Station météo située sur l'aérodrome de BALE Mulhouse
301030Z émis le 30 du mois à 10h30 UTC
AUTO Bulletin édité par un automate
VRB04KT vent de direction variable, 04 noeuds
CAVOK Ceiling And Visibility OK
- Visibilité de 10 Km ou plus
- Pas de nuage au-dessous de 1500m ou au-dessous de l'altitude minimale du secteur la plus élevée (si>1500m) et absence de CB
- pas de temps présent significatif
20/06 température 20°C, point de rosée 06°C
 soit une humidité relative de 40%
Q1019 la pression au niveau de la mer (QNH) est de 1019 hPa
NOSIG Pas de changement significatif prévu au cours des deux heures suivant l'heure de l'observation